Time;durP1;ratioP1;P1;durP2;ratioP2;P2;SDS_P1;SDS_P2;PMS_P1;PMS_P2;Temp;Humidity;BMP_temperature;BMP_pressure;BME280_temperature;BME280_humidity;BME280_pressure;Samples;Min_cycle;Max_cycle;Signal;HPM_P1;HPM_P2
2021/08/10 00:00:25;;;;;;;1.42;0.60;;;;;;;;;;4995719;28;20060;-49
2021/08/10 00:02:52;;;;;;;1.02;0.60;;;;;;;;;;5017978;28;20116;-47
2021/08/10 00:05:20;;;;;;;0.60;0.60;;;;;;;;;;5007914;28;20041;-50
2021/08/10 00:07:47;;;;;;;1.08;0.70;;;;;;;;;;5012079;28;20046;-47
2021/08/10 00:10:14;;;;;;;1.58;0.80;;;;;;;;;;5005005;28;20126;-45
2021/08/10 00:12:40;;;;;;;1.90;0.70;;;;;;;;;;4995795;28;20049;-46
2021/08/10 00:15:07;;;;;;;0.70;0.70;;;;;;;;;;5009925;28;20046;-48
2021/08/10 00:17:34;;;;;;;2.00;0.63;;;;;;;;;;5008037;28;20057;-48
2021/08/10 00:20:01;;;;;;;1.40;0.60;;;;;;;;;;5009107;28;20549;-47
2021/08/10 00:22:28;;;;;;;0.70;0.70;;;;;;;;;;5005931;28;20046;-48
2021/08/10 00:24:55;;;;;;;2.53;0.70;;;;;;;;;;5001524;28;20034;-48
2021/08/10 00:27:22;;;;;;;2.10;0.70;;;;;;;;;;5002325;28;20129;-50
2021/08/10 00:29:49;;;;;;;0.95;0.95;;;;;;;;;;5006726;28;20556;-46
2021/08/10 00:32:16;;;;;;;0.60;0.60;;;;;;;;;;5005857;28;20096;-47
2021/08/10 00:34:42;;;;;;;0.70;0.70;;;;;;;;;;5010459;28;20046;-48
2021/08/10 00:37:09;;;;;;;0.73;0.60;;;;;;;;;;5009280;28;20050;-46
2021/08/10 00:39:36;;;;;;;1.75;0.65;;;;;;;;;;4999669;28;20037;-49
2021/08/10 00:42:03;;;;;;;1.88;0.70;;;;;;;;;;5007257;28;20410;-48
2021/08/10 00:44:30;;;;;;;0.98;0.60;;;;;;;;;;5004039;28;20030;-49
2021/08/10 00:46:57;;;;;;;1.63;0.65;;;;;;;;;;5009826;28;20083;-50
2021/08/10 00:49:23;;;;;;;1.27;0.80;;;;;;;;;;5007447;28;20034;-50
2021/08/10 00:51:51;;;;;;;0.60;0.60;;;;;;;;;;5010606;28;20478;-48
2021/08/10 00:54:18;;;;;;;1.42;0.95;;;;;;;;;;5006792;28;20048;-49
2021/08/10 00:56:45;;;;;;;2.47;0.80;;;;;;;;;;4998468;28;20069;-48
2021/08/10 00:59:12;;;;;;;1.75;0.70;;;;;;;;;;5009118;28;20033;-46
2021/08/10 01:01:39;;;;;;;1.52;0.70;;;;;;;;;;5007144;28;20050;-48
2021/08/10 01:04:06;;;;;;;2.13;0.70;;;;;;;;;;5005878;28;20038;-45
2021/08/10 01:06:35;;;;;;;1.00;0.60;;;;;;;;;;5004023;28;20038;-49
2021/08/10 01:09:05;;;;;;;3.03;0.70;;;;;;;;;;5007248;28;20042;-47
2021/08/10 01:11:39;;;;;;;0.70;0.70;;;;;;;;;;5007077;28;20057;-45
2021/08/10 01:14:14;;;;;;;1.83;0.60;;;;;;;;;;5003227;28;20046;-46
2021/08/10 01:16:41;;;;;;;1.33;0.95;;;;;;;;;;4991759;28;20084;-47
2021/08/10 01:19:08;;;;;;;0.90;0.70;;;;;;;;;;5008781;28;20049;-50
2021/08/10 01:21:37;;;;;;;0.75;0.70;;;;;;;;;;5009050;28;20034;-45
2021/08/10 01:24:11;;;;;;;1.75;0.63;;;;;;;;;;5009601;28;20045;-47
2021/08/10 01:26:52;;;;;;;2.35;0.95;;;;;;;;;;5004222;28;20034;-49
2021/08/10 01:29:39;;;;;;;1.27;0.93;;;;;;;;;;5006158;28;20053;-50
2021/08/10 01:32:06;;;;;;;0.60;0.60;;;;;;;;;;4995272;28;20446;-48
2021/08/10 01:34:38;;;;;;;1.70;0.70;;;;;;;;;;5006851;28;20050;-49
2021/08/10 01:37:09;;;;;;;1.58;0.60;;;;;;;;;;4992592;28;20054;-46
2021/08/10 01:39:36;;;;;;;2.15;0.70;;;;;;;;;;5004399;28;20146;-46
2021/08/10 01:42:04;;;;;;;1.00;0.60;;;;;;;;;;5006315;28;20077;-49
2021/08/10 01:44:33;;;;;;;3.78;0.70;;;;;;;;;;5001318;28;20046;-47
2021/08/10 01:47:00;;;;;;;1.05;0.70;;;;;;;;;;5007495;28;20514;-48
2021/08/10 01:49:27;;;;;;;0.60;0.60;;;;;;;;;;5008182;28;20092;-46
2021/08/10 01:51:57;;;;;;;0.68;0.68;;;;;;;;;;5006677;28;20140;-50
2021/08/10 01:54:25;;;;;;;0.70;0.70;;;;;;;;;;5008689;28;20030;-47
2021/08/10 01:56:52;;;;;;;0.82;0.80;;;;;;;;;;5009131;28;20045;-49
2021/08/10 01:59:20;;;;;;;2.05;0.70;;;;;;;;;;5008570;28;20046;-47
2021/08/10 02:01:48;;;;;;;0.95;0.70;;;;;;;;;;5005558;28;20034;-48
2021/08/10 02:04:16;;;;;;;3.80;0.80;;;;;;;;;;5008584;28;20044;-50
2021/08/10 02:06:44;;;;;;;0.70;0.70;;;;;;;;;;5007116;28;20046;-48
2021/08/10 02:09:11;;;;;;;1.85;0.80;;;;;;;;;;4991675;28;20046;-49
2021/08/10 02:11:38;;;;;;;1.35;0.70;;;;;;;;;;5008690;28;20046;-49
2021/08/10 02:14:07;;;;;;;1.58;0.70;;;;;;;;;;5009296;28;20123;-46
2021/08/10 02:16:35;;;;;;;2.67;0.70;;;;;;;;;;5006819;28;20153;-46
2021/08/10 02:19:02;;;;;;;1.15;0.70;;;;;;;;;;5008670;28;20092;-45
2021/08/10 02:21:29;;;;;;;0.70;0.70;;;;;;;;;;5010326;28;20066;-48
2021/08/10 02:24:01;;;;;;;0.70;0.70;;;;;;;;;;5004178;28;20112;-46
2021/08/10 02:26:29;;;;;;;1.05;0.80;;;;;;;;;;5004061;28;20049;-48
2021/08/10 02:28:57;;;;;;;0.73;0.73;;;;;;;;;;5002635;28;20506;-49
2021/08/10 02:31:25;;;;;;;2.55;0.90;;;;;;;;;;5008937;28;20038;-50
2021/08/10 02:33:52;;;;;;;2.50;0.70;;;;;;;;;;5012613;28;20466;-48
2021/08/10 02:36:19;;;;;;;1.08;0.70;;;;;;;;;;5012118;28;20057;-49
2021/08/10 02:38:47;;;;;;;0.85;0.70;;;;;;;;;;5011515;28;20033;-49
2021/08/10 02:41:16;;;;;;;0.80;0.70;;;;;;;;;;5007111;28;20178;-49
2021/08/10 02:43:43;;;;;;;2.15;0.70;;;;;;;;;;5005427;28;20446;-46
2021/08/10 02:46:10;;;;;;;0.80;0.60;;;;;;;;;;5007921;28;20049;-49
2021/08/10 02:48:37;;;;;;;1.35;0.80;;;;;;;;;;5007071;28;20474;-46
2021/08/10 02:51:04;;;;;;;0.60;0.60;;;;;;;;;;5010793;28;20393;-49
2021/08/10 02:53:33;;;;;;;0.70;0.70;;;;;;;;;;4994194;28;20049;-50
2021/08/10 02:56:21;;;;;;;0.60;0.60;;;;;;;;;;5012092;28;20049;-47
2021/08/10 02:58:55;;;;;;;1.77;0.77;;;;;;;;;;5011027;28;20081;-49
2021/08/10 03:01:30;;;;;;;5.50;0.80;;;;;;;;;;5005373;28;20120;-48
2021/08/10 03:03:59;;;;;;;1.88;0.80;;;;;;;;;;5004850;28;20764;-46
2021/08/10 03:06:26;;;;;;;0.70;0.70;;;;;;;;;;5008605;28;20348;-46
2021/08/10 03:08:59;;;;;;;2.15;0.80;;;;;;;;;;4998026;28;20046;-48
2021/08/10 03:11:28;;;;;;;0.70;0.70;;;;;;;;;;5008791;28;20049;-49
2021/08/10 03:13:55;;;;;;;2.28;0.73;;;;;;;;;;4999605;28;20042;-47
2021/08/10 03:16:23;;;;;;;2.75;0.70;;;;;;;;;;5012486;28;20041;-46
2021/08/10 03:18:51;;;;;;;0.80;0.80;;;;;;;;;;5009629;28;20037;-47
2021/08/10 03:21:19;;;;;;;1.38;0.70;;;;;;;;;;4995374;28;20046;-45
2021/08/10 03:23:47;;;;;;;0.70;0.70;;;;;;;;;;5008742;28;20560;-46
2021/08/10 03:26:15;;;;;;;1.77;0.70;;;;;;;;;;5007952;28;20037;-49
2021/08/10 03:28:43;;;;;;;1.70;0.80;;;;;;;;;;5012180;28;20121;-46
2021/08/10 03:31:11;;;;;;;1.52;0.70;;;;;;;;;;5004223;28;20030;-48
2021/08/10 03:33:38;;;;;;;2.72;0.80;;;;;;;;;;4998052;28;20065;-46
2021/08/10 03:36:05;;;;;;;1.08;0.90;;;;;;;;;;5003209;28;20493;-50
2021/08/10 03:38:35;;;;;;;0.70;0.70;;;;;;;;;;5000008;28;20046;-45
2021/08/10 03:41:03;;;;;;;0.80;0.70;;;;;;;;;;5010400;28;20038;-46
2021/08/10 03:43:30;;;;;;;1.55;0.70;;;;;;;;;;5011177;28;20112;-48
2021/08/10 03:45:57;;;;;;;0.60;0.60;;;;;;;;;;5005134;28;20038;-50
2021/08/10 03:48:24;;;;;;;1.40;0.90;;;;;;;;;;5010415;28;20033;-45
2021/08/10 03:50:52;;;;;;;2.15;1.25;;;;;;;;;;5008890;28;20132;-50
2021/08/10 03:53:21;;;;;;;0.70;0.70;;;;;;;;;;5011682;28;20092;-45
2021/08/10 03:55:49;;;;;;;0.98;0.70;;;;;;;;;;5009113;28;20046;-47
2021/08/10 03:58:17;;;;;;;2.70;0.80;;;;;;;;;;5008569;28;20077;-47
2021/08/10 04:00:44;;;;;;;0.60;0.60;;;;;;;;;;5001826;28;20042;-46
2021/08/10 04:03:12;;;;;;;1.27;0.70;;;;;;;;;;5001522;28;20038;-47
2021/08/10 04:05:43;;;;;;;1.58;0.63;;;;;;;;;;5007002;28;20444;-48
2021/08/10 04:08:11;;;;;;;1.08;0.70;;;;;;;;;;5008798;28;20586;-49
2021/08/10 04:10:38;;;;;;;5.07;0.70;;;;;;;;;;5009591;28;20057;-47
2021/08/10 04:13:07;;;;;;;0.75;0.70;;;;;;;;;;5010772;28;20045;-45
2021/08/10 04:15:38;;;;;;;1.25;0.80;;;;;;;;;;5009334;28;20045;-48
2021/08/10 04:18:05;;;;;;;1.25;0.80;;;;;;;;;;5003446;28;20057;-47
2021/08/10 04:20:32;;;;;;;1.15;0.95;;;;;;;;;;5008405;28;20517;-47
2021/08/10 04:22:58;;;;;;;0.70;0.70;;;;;;;;;;5009307;28;20057;-47
2021/08/10 04:25:25;;;;;;;4.68;1.00;;;;;;;;;;5009953;28;20497;-47
2021/08/10 04:27:52;;;;;;;0.70;0.70;;;;;;;;;;5010018;28;20046;-46
2021/08/10 04:30:19;;;;;;;1.48;0.90;;;;;;;;;;4990857;28;20066;-46
2021/08/10 04:32:45;;;;;;;1.45;0.70;;;;;;;;;;5007236;28;20050;-46
2021/08/10 04:35:12;;;;;;;1.05;0.70;;;;;;;;;;5007196;28;20137;-48
2021/08/10 04:37:39;;;;;;;3.30;0.80;;;;;;;;;;5015327;28;20049;-49
2021/08/10 04:40:06;;;;;;;1.60;0.70;;;;;;;;;;5008526;28;20599;-48
2021/08/10 04:42:36;;;;;;;2.15;0.98;;;;;;;;;;4992925;28;20065;-46
2021/08/10 04:45:02;;;;;;;0.93;0.70;;;;;;;;;;5002349;28;20128;-45
2021/08/10 04:47:29;;;;;;;0.82;0.68;;;;;;;;;;4997333;28;20031;-48
2021/08/10 04:49:58;;;;;;;0.70;0.70;;;;;;;;;;4999872;28;20057;-49
2021/08/10 04:52:25;;;;;;;1.23;1.23;;;;;;;;;;5006084;28;20045;-50
2021/08/10 04:54:52;;;;;;;1.13;0.63;;;;;;;;;;5009077;28;20057;-49
2021/08/10 04:57:18;;;;;;;3.72;1.27;;;;;;;;;;5000970;28;20048;-45
2021/08/10 04:59:45;;;;;;;1.40;0.70;;;;;;;;;;5001621;28;20041;-49
2021/08/10 05:02:12;;;;;;;0.80;0.80;;;;;;;;;;5006348;28;20077;-48
2021/08/10 05:04:38;;;;;;;0.82;0.70;;;;;;;;;;5004687;28;20534;-46
2021/08/10 05:07:06;;;;;;;1.30;0.70;;;;;;;;;;5002059;28;20050;-50
2021/08/10 05:09:32;;;;;;;1.38;0.63;;;;;;;;;;5005533;28;20141;-49
2021/08/10 05:11:59;;;;;;;0.80;0.80;;;;;;;;;;5008183;28;20096;-48
2021/08/10 05:14:26;;;;;;;0.85;0.70;;;;;;;;;;4998906;28;20546;-51
2021/08/10 05:16:53;;;;;;;1.45;1.35;;;;;;;;;;5008220;28;20084;-45
2021/08/10 05:19:19;;;;;;;1.92;0.70;;;;;;;;;;5007540;28;20112;-48
2021/08/10 05:21:46;;;;;;;0.70;0.70;;;;;;;;;;4998317;28;20379;-44
2021/08/10 05:24:13;;;;;;;0.70;0.70;;;;;;;;;;5006535;28;20030;-50
2021/08/10 05:26:40;;;;;;;1.00;0.80;;;;;;;;;;4991158;28;20057;-50
2021/08/10 05:29:07;;;;;;;0.70;0.70;;;;;;;;;;5008309;28;20482;-52
2021/08/10 05:31:33;;;;;;;1.25;0.65;;;;;;;;;;5007474;28;20054;-52
2021/08/10 05:34:00;;;;;;;0.70;0.70;;;;;;;;;;5004211;28;20046;-50
2021/08/10 05:36:27;;;;;;;0.65;0.65;;;;;;;;;;4999689;28;20064;-51
2021/08/10 05:38:54;;;;;;;1.70;1.42;;;;;;;;;;5008113;28;20034;-47
2021/08/10 05:41:22;;;;;;;1.20;1.10;;;;;;;;;;5017432;28;20116;-51
2021/08/10 05:43:49;;;;;;;2.15;1.00;;;;;;;;;;5017532;28;20046;-49
2021/08/10 05:46:16;;;;;;;0.63;0.63;;;;;;;;;;4995190;28;20046;-50
2021/08/10 05:48:45;;;;;;;4.72;1.00;;;;;;;;;;4994120;28;20458;-51
2021/08/10 05:51:14;;;;;;;1.83;1.00;;;;;;;;;;4994512;28;20042;-48
2021/08/10 05:53:41;;;;;;;0.70;0.70;;;;;;;;;;5004456;28;20073;-50
2021/08/10 05:56:08;;;;;;;4.18;0.70;;;;;;;;;;5003114;28;20040;-51
2021/08/10 05:58:34;;;;;;;1.95;0.80;;;;;;;;;;5013812;28;20049;-49
2021/08/10 06:01:04;;;;;;;1.73;0.60;;;;;;;;;;5011254;28;20053;-50
2021/08/10 06:03:31;;;;;;;4.88;1.23;;;;;;;;;;5006267;28;20230;-51
2021/08/10 06:05:58;;;;;;;1.70;1.00;;;;;;;;;;5012904;28;20061;-49
2021/08/10 06:08:27;;;;;;;1.52;0.70;;;;;;;;;;5011442;28;20030;-50
2021/08/10 06:10:54;;;;;;;1.38;0.70;;;;;;;;;;5012798;28;20034;-50
2021/08/10 06:13:20;;;;;;;1.65;0.60;;;;;;;;;;5006864;28;20046;-52
2021/08/10 06:15:47;;;;;;;2.17;0.70;;;;;;;;;;4999810;28;20045;-49
2021/08/10 06:18:14;;;;;;;0.70;0.60;;;;;;;;;;5002203;28;20486;-48
2021/08/10 06:20:41;;;;;;;0.90;0.70;;;;;;;;;;5008091;28;20489;-51
2021/08/10 06:23:08;;;;;;;0.85;0.60;;;;;;;;;;5010742;28;20049;-50
2021/08/10 06:25:35;;;;;;;3.30;0.90;;;;;;;;;;5005108;28;20092;-51
2021/08/10 06:28:01;;;;;;;2.17;0.70;;;;;;;;;;4998481;28;20575;-50
2021/08/10 06:30:28;;;;;;;1.10;0.60;;;;;;;;;;5013805;28;20056;-51
2021/08/10 06:32:55;;;;;;;1.35;0.60;;;;;;;;;;5005138;28;20489;-51
2021/08/10 06:35:22;;;;;;;0.85;0.60;;;;;;;;;;5000395;28;20045;-53
2021/08/10 06:37:48;;;;;;;3.70;0.70;;;;;;;;;;5005919;28;20125;-50
2021/08/10 06:40:15;;;;;;;1.55;0.70;;;;;;;;;;5001050;28;20077;-49
2021/08/10 06:42:42;;;;;;;0.93;0.60;;;;;;;;;;4998561;28;20497;-50
2021/08/10 06:45:09;;;;;;;2.10;0.80;;;;;;;;;;5008598;28;20026;-48
2021/08/10 06:47:36;;;;;;;1.23;1.00;;;;;;;;;;4999812;28;20073;-52
2021/08/10 06:50:02;;;;;;;0.60;0.60;;;;;;;;;;5025673;28;20509;-52
2021/08/10 06:52:31;;;;;;;2.25;0.63;;;;;;;;;;5003029;28;20100;-51
2021/08/10 06:54:58;;;;;;;0.98;0.70;;;;;;;;;;4997368;28;20054;-50
2021/08/10 06:57:24;;;;;;;2.90;0.60;;;;;;;;;;5006493;28;20053;-52
2021/08/10 06:59:51;;;;;;;0.60;0.60;;;;;;;;;;4996041;28;20084;-52
2021/08/10 07:02:18;;;;;;;0.82;0.82;;;;;;;;;;5003453;28;20372;-51
2021/08/10 07:04:45;;;;;;;1.25;0.60;;;;;;;;;;5008437;28;20045;-52
2021/08/10 07:07:12;;;;;;;0.60;0.60;;;;;;;;;;5011800;28;20624;-50
2021/08/10 07:09:39;;;;;;;1.60;0.98;;;;;;;;;;5010664;28;20379;-50
2021/08/10 07:12:06;;;;;;;0.98;0.63;;;;;;;;;;5010581;28;20088;-50
2021/08/10 07:14:32;;;;;;;2.25;0.60;;;;;;;;;;5001990;28;20070;-49
2021/08/10 07:16:59;;;;;;;1.95;0.60;;;;;;;;;;5003984;28;20049;-51
2021/08/10 07:19:26;;;;;;;0.60;0.60;;;;;;;;;;5010930;28;20041;-52
2021/08/10 07:21:53;;;;;;;0.60;0.60;;;;;;;;;;5009851;28;20488;-52
2021/08/10 07:24:20;;;;;;;0.47;0.47;;;;;;;;;;5008998;28;20042;-51
2021/08/10 07:26:46;;;;;;;0.60;0.60;;;;;;;;;;5012291;28;20052;-50
2021/08/10 07:29:13;;;;;;;3.05;0.57;;;;;;;;;;5008945;28;20042;-49
2021/08/10 07:31:40;;;;;;;1.67;0.60;;;;;;;;;;5009464;28;20040;-51
2021/08/10 07:34:07;;;;;;;0.52;0.52;;;;;;;;;;5005226;28;20050;-51
2021/08/10 07:36:33;;;;;;;1.45;0.50;;;;;;;;;;5005775;28;20550;-52
2021/08/10 07:39:00;;;;;;;0.75;0.50;;;;;;;;;;5010940;28;20049;-50
2021/08/10 07:41:27;;;;;;;1.00;0.60;;;;;;;;;;5009487;28;20117;-47
2021/08/10 07:43:54;;;;;;;1.88;0.60;;;;;;;;;;4994381;28;20057;-51
2021/08/10 07:46:21;;;;;;;0.63;0.57;;;;;;;;;;5010244;28;20042;-52
2021/08/10 07:48:48;;;;;;;1.30;0.50;;;;;;;;;;5006090;28;20466;-49
2021/08/10 07:51:15;;;;;;;1.85;0.60;;;;;;;;;;5004761;28;20029;-51
2021/08/10 07:53:42;;;;;;;1.05;0.50;;;;;;;;;;5007700;28;20096;-49
2021/08/10 07:56:11;;;;;;;0.73;0.50;;;;;;;;;;4993695;28;20100;-52
2021/08/10 07:58:38;;;;;;;0.55;0.40;;;;;;;;;;5009602;28;20076;-50
2021/08/10 08:01:05;;;;;;;1.92;0.50;;;;;;;;;;5009371;28;20447;-53
2021/08/10 08:03:33;;;;;;;1.15;0.60;;;;;;;;;;4999412;28;20633;-48
2021/08/10 08:06:00;;;;;;;0.70;0.50;;;;;;;;;;5008745;28;20439;-52
2021/08/10 08:08:29;;;;;;;10.30;0.70;;;;;;;;;;5009199;28;20066;-52
2021/08/10 08:10:57;;;;;;;15.57;0.70;;;;;;;;;;5009516;28;20042;-51
2021/08/10 08:13:25;;;;;;;0.50;0.40;;;;;;;;;;5007772;28;20080;-51
2021/08/10 08:15:52;;;;;;;0.40;0.40;;;;;;;;;;5011496;28;20111;-51
2021/08/10 08:18:20;;;;;;;0.82;0.50;;;;;;;;;;5006309;28;20065;-52
2021/08/10 08:20:46;;;;;;;0.50;0.50;;;;;;;;;;5007512;28;20049;-51
2021/08/10 08:23:14;;;;;;;0.40;0.40;;;;;;;;;;5000414;28;20070;-50
2021/08/10 08:25:40;;;;;;;0.47;0.45;;;;;;;;;;5002121;28;20593;-50
2021/08/10 08:28:11;;;;;;;0.50;0.50;;;;;;;;;;5010856;28;20050;-51
2021/08/10 08:30:38;;;;;;;0.82;0.40;;;;;;;;;;5003336;28;20117;-50
2021/08/10 08:33:09;;;;;;;2.55;0.40;;;;;;;;;;4998403;28;20121;-51
2021/08/10 08:35:38;;;;;;;1.75;0.40;;;;;;;;;;4995756;28;20033;-48
2021/08/10 08:38:05;;;;;;;1.70;0.45;;;;;;;;;;5005348;28;20401;-51
2021/08/10 08:40:32;;;;;;;0.52;0.40;;;;;;;;;;5007575;28;20085;-53
2021/08/10 08:42:59;;;;;;;0.30;0.30;;;;;;;;;;5001567;28;20578;-51
2021/08/10 08:45:26;;;;;;;0.40;0.40;;;;;;;;;;5000442;28;20068;-53
2021/08/10 08:47:53;;;;;;;1.40;0.40;;;;;;;;;;5010657;28;20121;-50
2021/08/10 08:50:22;;;;;;;1.05;0.40;;;;;;;;;;5003768;28;20034;-52
2021/08/10 08:52:52;;;;;;;0.40;0.40;;;;;;;;;;5007841;28;20122;-52
2021/08/10 08:55:20;;;;;;;1.42;0.30;;;;;;;;;;5001522;28;20042;-51
2021/08/10 08:57:47;;;;;;;1.92;0.50;;;;;;;;;;5002428;28;20045;-50
2021/08/10 09:00:15;;;;;;;0.30;0.30;;;;;;;;;;4993468;28;20042;-53
2021/08/10 09:02:44;;;;;;;0.57;0.40;;;;;;;;;;5005213;28;20036;-52
2021/08/10 09:05:12;;;;;;;1.15;0.40;;;;;;;;;;4995932;28;20056;-54
2021/08/10 09:07:39;;;;;;;1.45;0.35;;;;;;;;;;5010347;28;20111;-51
2021/08/10 09:10:06;;;;;;;0.43;0.30;;;;;;;;;;5007551;28;20056;-51
2021/08/10 09:12:43;;;;;;;0.30;0.30;;;;;;;;;;5008688;28;20042;-53
2021/08/10 09:15:10;;;;;;;0.43;0.43;;;;;;;;;;5002500;28;20431;-53
2021/08/10 09:17:47;;;;;;;0.60;0.40;;;;;;;;;;4998196;28;20049;-52
2021/08/10 09:20:21;;;;;;;0.40;0.40;;;;;;;;;;5009708;28;20030;-52
2021/08/10 09:22:55;;;;;;;1.33;0.40;;;;;;;;;;5004019;28;20057;-53
2021/08/10 09:25:22;;;;;;;0.40;0.40;;;;;;;;;;5009086;28;20458;-53
2021/08/10 09:27:49;;;;;;;0.40;0.40;;;;;;;;;;4997751;28;20049;-52
2021/08/10 09:30:24;;;;;;;2.35;0.40;;;;;;;;;;4999871;28;20042;-54
2021/08/10 09:33:03;;;;;;;0.30;0.30;;;;;;;;;;4989914;28;20034;-54
2021/08/10 09:35:34;;;;;;;2.65;0.30;;;;;;;;;;5010040;28;20457;-53
2021/08/10 09:38:04;;;;;;;0.40;0.30;;;;;;;;;;5006939;28;20038;-53
2021/08/10 09:40:30;;;;;;;0.40;0.40;;;;;;;;;;5009882;28;20514;-54
2021/08/10 09:43:16;;;;;;;0.40;0.40;;;;;;;;;;5004489;28;20505;-53
2021/08/10 09:45:43;;;;;;;0.50;0.38;;;;;;;;;;4995389;28;20037;-53
2021/08/10 09:48:14;;;;;;;1.83;0.32;;;;;;;;;;5009666;28;20056;-53
2021/08/10 09:50:41;;;;;;;0.40;0.40;;;;;;;;;;5005947;28;20052;-53
2021/08/10 09:53:14;;;;;;;2.53;0.40;;;;;;;;;;5008566;28;20046;-53
2021/08/10 09:56:01;;;;;;;0.90;0.40;;;;;;;;;;5001394;28;20122;-53
2021/08/10 09:58:28;;;;;;;1.45;0.32;;;;;;;;;;5001939;28;20050;-53
2021/08/10 10:01:01;;;;;;;0.30;0.30;;;;;;;;;;5009419;28;20038;-52
2021/08/10 10:03:30;;;;;;;0.30;0.30;;;;;;;;;;5002996;28;20383;-53
2021/08/10 10:05:57;;;;;;;0.70;0.50;;;;;;;;;;4998375;28;20375;-52
2021/08/10 10:08:25;;;;;;;1.63;0.35;;;;;;;;;;4995526;28;20121;-52
2021/08/10 10:10:53;;;;;;;0.45;0.40;;;;;;;;;;5003259;28;20552;-51
2021/08/10 10:13:21;;;;;;;0.45;0.40;;;;;;;;;;5002862;28;20053;-53
2021/08/10 10:15:47;;;;;;;0.43;0.40;;;;;;;;;;5007399;28;20069;-52
2021/08/10 10:18:14;;;;;;;0.85;0.30;;;;;;;;;;5005640;28;20556;-54
2021/08/10 10:20:42;;;;;;;1.80;0.30;;;;;;;;;;5005687;28;20750;-51
2021/08/10 10:23:11;;;;;;;1.40;0.47;;;;;;;;;;5002015;28;20038;-52
2021/08/10 10:25:38;;;;;;;0.47;0.30;;;;;;;;;;5004052;28;20089;-52
2021/08/10 10:28:05;;;;;;;0.30;0.30;;;;;;;;;;5007289;28;20049;-54
2021/08/10 10:30:32;;;;;;;0.30;0.30;;;;;;;;;;5005884;28;20053;-53
2021/08/10 10:32:58;;;;;;;1.15;0.40;;;;;;;;;;4996807;28;20052;-53
2021/08/10 10:35:25;;;;;;;0.47;0.40;;;;;;;;;;5004857;28;20133;-54
2021/08/10 10:37:52;;;;;;;0.98;0.40;;;;;;;;;;5006081;28;20046;-53
2021/08/10 10:40:20;;;;;;;0.32;0.30;;;;;;;;;;5007663;28;20549;-54
2021/08/10 10:42:55;;;;;;;0.30;0.30;;;;;;;;;;5004815;28;20149;-52
2021/08/10 10:45:41;;;;;;;0.40;0.32;;;;;;;;;;5010935;28;20044;-54
2021/08/10 10:48:20;;;;;;;1.42;0.30;;;;;;;;;;5009451;28;20569;-52
2021/08/10 10:51:08;;;;;;;2.05;0.82;;;;;;;;;;5008182;28;20042;-53
2021/08/10 10:53:35;;;;;;;0.32;0.30;;;;;;;;;;5006687;28;20052;-53
2021/08/10 10:56:03;;;;;;;3.03;0.40;;;;;;;;;;5005109;28;20033;-54
2021/08/10 10:58:31;;;;;;;1.42;0.30;;;;;;;;;;5007937;28;20042;-53
2021/08/10 11:01:10;;;;;;;3.38;0.40;;;;;;;;;;5007250;28;20044;-54
2021/08/10 11:03:38;;;;;;;0.63;0.30;;;;;;;;;;5001943;28;20050;-53
2021/08/10 11:06:23;;;;;;;1.00;0.30;;;;;;;;;;5011973;28;20402;-53
2021/08/10 11:08:51;;;;;;;1.40;0.30;;;;;;;;;;5008603;28;20071;-53
2021/08/10 11:11:37;;;;;;;2.53;0.32;;;;;;;;;;5009522;28;20029;-54
2021/08/10 11:14:04;;;;;;;0.70;0.30;;;;;;;;;;5018828;28;20056;-52
2021/08/10 11:16:50;;;;;;;2.38;0.40;;;;;;;;;;5013314;28;20406;-53
2021/08/10 11:19:31;;;;;;;4.30;0.40;;;;;;;;;;5008171;28;20073;-51
2021/08/10 11:22:16;;;;;;;0.40;0.38;;;;;;;;;;5010238;28;20108;-53
2021/08/10 11:24:47;;;;;;;0.60;0.38;;;;;;;;;;5004944;28;20073;-53
2021/08/10 11:27:33;;;;;;;2.85;1.00;;;;;;;;;;5009293;28;20038;-53
2021/08/10 11:30:02;;;;;;;4.45;0.45;;;;;;;;;;5005871;28;20045;-52
2021/08/10 11:32:40;;;;;;;2.20;0.40;;;;;;;;;;5007208;28;20088;-54
2021/08/10 11:35:25;;;;;;;1.55;0.40;;;;;;;;;;5002162;28;20050;-54
2021/08/10 11:38:04;;;;;;;0.80;0.50;;;;;;;;;;5008786;28;20038;-51
2021/08/10 11:40:46;;;;;;;1.80;0.40;;;;;;;;;;5007330;28;20034;-51
2021/08/10 11:43:13;;;;;;;3.85;0.40;;;;;;;;;;4999603;28;20049;-52
2021/08/10 11:45:40;;;;;;;0.40;0.30;;;;;;;;;;5004677;28;20108;-47
2021/08/10 11:48:07;;;;;;;0.60;0.40;;;;;;;;;;5008462;28;20038;-50
2021/08/10 11:50:34;;;;;;;3.00;0.40;;;;;;;;;;5003494;28;20037;-48
2021/08/10 11:53:02;;;;;;;2.80;0.40;;;;;;;;;;5006377;28;20048;-49
2021/08/10 11:55:30;;;;;;;3.83;0.60;;;;;;;;;;5010697;28;20402;-47
2021/08/10 11:57:58;;;;;;;3.80;0.50;;;;;;;;;;5010268;28;20393;-48
2021/08/10 12:00:25;;;;;;;3.03;0.50;;;;;;;;;;5004733;28;20122;-49
2021/08/10 12:02:53;;;;;;;0.70;0.40;;;;;;;;;;5008311;28;20120;-47
2021/08/10 12:05:20;;;;;;;4.03;0.50;;;;;;;;;;4998291;28;20042;-48
2021/08/10 12:07:54;;;;;;;3.08;0.50;;;;;;;;;;5008629;28;20068;-49
2021/08/10 12:10:41;;;;;;;1.23;0.32;;;;;;;;;;5009130;28;20041;-51
2021/08/10 12:13:21;;;;;;;0.80;0.40;;;;;;;;;;5011893;28;20068;-48
2021/08/10 12:15:48;;;;;;;2.58;0.40;;;;;;;;;;5008622;28;20112;-48
2021/08/10 12:18:16;;;;;;;3.35;0.40;;;;;;;;;;5008184;28;20111;-47
2021/08/10 12:20:53;;;;;;;3.08;0.45;;;;;;;;;;5012887;28;20443;-48
2021/08/10 12:23:20;;;;;;;1.63;0.50;;;;;;;;;;5007449;28;20034;-47
2021/08/10 12:25:47;;;;;;;5.28;0.45;;;;;;;;;;5007700;28;20045;-49
2021/08/10 12:28:14;;;;;;;7.43;0.60;;;;;;;;;;5009490;28;20084;-47
2021/08/10 12:30:44;;;;;;;2.40;0.75;;;;;;;;;;5001307;28;20038;-48
2021/08/10 12:33:15;;;;;;;2.65;0.50;;;;;;;;;;5001000;28;20058;-46
2021/08/10 12:35:55;;;;;;;3.67;0.40;;;;;;;;;;5001737;28;20054;-50
2021/08/10 12:38:22;;;;;;;4.38;0.40;;;;;;;;;;5000278;28;20368;-48
2021/08/10 12:40:50;;;;;;;3.40;0.40;;;;;;;;;;5005208;28;20046;-47
2021/08/10 12:43:17;;;;;;;2.58;0.40;;;;;;;;;;5007444;28;20139;-48
2021/08/10 12:45:43;;;;;;;3.80;0.50;;;;;;;;;;5005413;28;20630;-48
2021/08/10 12:48:29;;;;;;;2.45;0.50;;;;;;;;;;5004783;28;20046;-48
2021/08/10 12:51:05;;;;;;;3.70;0.50;;;;;;;;;;5017480;28;20104;-47
2021/08/10 12:53:34;;;;;;;2.25;0.40;;;;;;;;;;5002541;28;20049;-49
2021/08/10 12:56:02;;;;;;;5.50;0.40;;;;;;;;;;5007861;28;20045;-48
2021/08/10 12:58:30;;;;;;;2.28;0.50;;;;;;;;;;5007347;28;20046;-49
2021/08/10 13:01:03;;;;;;;1.33;0.43;;;;;;;;;;5008704;28;20124;-47
2021/08/10 13:03:30;;;;;;;4.22;0.50;;;;;;;;;;5006525;28;20034;-47
2021/08/10 13:05:58;;;;;;;6.13;0.70;;;;;;;;;;4991759;28;20038;-49
2021/08/10 13:08:25;;;;;;;3.17;0.50;;;;;;;;;;5010619;28;20096;-48
2021/08/10 13:10:53;;;;;;;0.77;0.40;;;;;;;;;;5007496;28;20038;-50
2021/08/10 13:13:27;;;;;;;3.78;0.50;;;;;;;;;;4996911;28;20033;-47
2021/08/10 13:15:56;;;;;;;3.42;0.43;;;;;;;;;;5008344;28;20618;-49
2021/08/10 13:18:27;;;;;;;3.00;0.40;;;;;;;;;;4994767;28;20137;-49
2021/08/10 13:20:57;;;;;;;3.90;0.70;;;;;;;;;;5008249;28;20034;-50
2021/08/10 13:23:25;;;;;;;8.07;0.68;;;;;;;;;;5007931;28;20038;-49
2021/08/10 13:26:01;;;;;;;2.38;0.50;;;;;;;;;;5006961;28;20041;-45
2021/08/10 13:28:30;;;;;;;1.00;0.47;;;;;;;;;;5006320;28;20038;-48
2021/08/10 13:31:13;;;;;;;8.32;0.60;;;;;;;;;;5006702;28;20042;-49
2021/08/10 13:34:02;;;;;;;2.35;0.43;;;;;;;;;;5009120;28;20410;-47
2021/08/10 13:36:30;;;;;;;4.30;0.82;;;;;;;;;;5000770;28;20075;-48
2021/08/10 13:38:58;;;;;;;3.42;0.40;;;;;;;;;;4998955;28;20029;-48
2021/08/10 13:41:28;;;;;;;8.23;0.47;;;;;;;;;;4995185;28;20054;-47
2021/08/10 13:43:56;;;;;;;6.78;0.60;;;;;;;;;;5005015;28;20572;-50
2021/08/10 13:46:28;;;;;;;6.13;1.13;;;;;;;;;;5000093;28;20495;-51
2021/08/10 13:48:55;;;;;;;6.88;0.57;;;;;;;;;;5009820;28;20346;-50
2021/08/10 13:51:23;;;;;;;4.35;0.90;;;;;;;;;;5008388;28;20041;-48
2021/08/10 13:53:49;;;;;;;3.08;0.50;;;;;;;;;;4992990;28;20101;-48
2021/08/10 13:56:16;;;;;;;2.15;0.60;;;;;;;;;;5003145;28;20039;-49
2021/08/10 13:58:43;;;;;;;3.38;0.55;;;;;;;;;;4993914;28;20552;-48
2021/08/10 14:01:14;;;;;;;3.42;0.50;;;;;;;;;;5006846;28;20395;-49
2021/08/10 14:03:41;;;;;;;3.72;0.50;;;;;;;;;;5003088;28;20069;-47
2021/08/10 14:06:09;;;;;;;2.40;0.40;;;;;;;;;;4991837;28;20042;-50
2021/08/10 14:08:35;;;;;;;6.03;0.60;;;;;;;;;;5008901;28;20038;-50
2021/08/10 14:11:03;;;;;;;1.35;0.50;;;;;;;;;;5008796;28;20030;-47
2021/08/10 14:13:30;;;;;;;3.65;0.60;;;;;;;;;;5012232;28;20084;-48
2021/08/10 14:15:57;;;;;;;4.90;0.40;;;;;;;;;;5007737;28;20120;-49
2021/08/10 14:18:24;;;;;;;5.45;0.95;;;;;;;;;;4994492;28;20125;-49
2021/08/10 14:21:02;;;;;;;6.38;0.50;;;;;;;;;;5003691;28;20050;-50
2021/08/10 14:23:29;;;;;;;4.63;0.80;;;;;;;;;;5002799;28;20053;-49
2021/08/10 14:25:56;;;;;;;1.52;0.50;;;;;;;;;;5012382;28;20556;-50
2021/08/10 14:28:23;;;;;;;5.72;0.77;;;;;;;;;;5007832;28;20045;-50
2021/08/10 14:31:00;;;;;;;5.43;0.60;;;;;;;;;;5006425;28;20100;-48
2021/08/10 14:33:27;;;;;;;2.05;0.50;;;;;;;;;;5008425;28;20460;-47
2021/08/10 14:35:54;;;;;;;7.47;0.70;;;;;;;;;;5010523;28;20061;-47
2021/08/10 14:38:21;;;;;;;6.45;0.50;;;;;;;;;;4995541;28;20050;-50
2021/08/10 14:40:48;;;;;;;0.50;0.50;;;;;;;;;;5010239;28;20077;-53
2021/08/10 14:43:15;;;;;;;9.00;0.52;;;;;;;;;;5010959;28;20053;-51
2021/08/10 14:45:41;;;;;;;4.03;0.50;;;;;;;;;;5008712;28;20121;-50
2021/08/10 14:48:08;;;;;;;5.85;0.75;;;;;;;;;;5007231;28;20042;-49
2021/08/10 14:50:35;;;;;;;3.30;0.50;;;;;;;;;;4996419;28;20129;-51
2021/08/10 14:53:03;;;;;;;1.63;0.50;;;;;;;;;;5011113;28;20438;-49